sensor_id;sensor_type;location;lat;lon;timestamp;P1;durP1;ratioP1;P2;durP2;ratioP2
31368;SDS011;18004;48.416;10.066;2024-01-06T00:02:16;11.55;;;5.55;;
31368;SDS011;18004;48.416;10.066;2024-01-06T00:04:42;8.30;;;5.38;;
31368;SDS011;18004;48.416;10.066;2024-01-06T00:07:07;10.30;;;5.75;;
31368;SDS011;18004;48.416;10.066;2024-01-06T00:09:34;16.45;;;6.20;;
31368;SDS011;18004;48.416;10.066;2024-01-06T00:12:00;9.70;;;5.47;;
31368;SDS011;18004;48.416;10.066;2024-01-06T00:14:27;10.07;;;6.30;;
31368;SDS011;18004;48.416;10.066;2024-01-06T00:16:52;8.18;;;5.32;;
31368;SDS011;18004;48.416;10.066;2024-01-06T00:19:18;9.85;;;6.03;;
31368;SDS011;18004;48.416;10.066;2024-01-06T00:21:44;16.00;;;5.75;;
31368;SDS011;18004;48.416;10.066;2024-01-06T00:24:10;8.25;;;5.22;;
31368;SDS011;18004;48.416;10.066;2024-01-06T00:26:36;8.75;;;5.63;;
31368;SDS011;18004;48.416;10.066;2024-01-06T00:29:01;9.90;;;5.60;;
31368;SDS011;18004;48.416;10.066;2024-01-06T00:31:27;12.68;;;5.43;;
31368;SDS011;18004;48.416;10.066;2024-01-06T00:33:53;13.98;;;6.35;;
31368;SDS011;18004;48.416;10.066;2024-01-06T00:36:19;8.52;;;5.75;;
31368;SDS011;18004;48.416;10.066;2024-01-06T00:38:44;5.68;;;4.88;;
31368;SDS011;18004;48.416;10.066;2024-01-06T00:41:10;13.75;;;6.10;;
31368;SDS011;18004;48.416;10.066;2024-01-06T00:43:36;9.18;;;4.75;;
31368;SDS011;18004;48.416;10.066;2024-01-06T00:46:01;8.73;;;3.38;;
31368;SDS011;18004;48.416;10.066;2024-01-06T00:48:28;9.82;;;3.72;;
31368;SDS011;18004;48.416;10.066;2024-01-06T00:50:54;6.57;;;3.63;;
31368;SDS011;18004;48.416;10.066;2024-01-06T00:53:21;3.03;;;1.67;;
31368;SDS011;18004;48.416;10.066;2024-01-06T00:55:47;4.05;;;1.67;;
31368;SDS011;18004;48.416;10.066;2024-01-06T00:58:12;4.30;;;0.98;;
31368;SDS011;18004;48.416;10.066;2024-01-06T01:00:38;1.52;;;1.08;;
31368;SDS011;18004;48.416;10.066;2024-01-06T01:03:05;1.92;;;1.05;;
31368;SDS011;18004;48.416;10.066;2024-01-06T01:05:31;1.60;;;0.85;;
31368;SDS011;18004;48.416;10.066;2024-01-06T01:07:57;2.67;;;1.40;;
31368;SDS011;18004;48.416;10.066;2024-01-06T01:10:23;2.90;;;1.65;;
31368;SDS011;18004;48.416;10.066;2024-01-06T01:12:48;5.55;;;1.60;;
31368;SDS011;18004;48.416;10.066;2024-01-06T01:15:14;2.72;;;1.33;;
31368;SDS011;18004;48.416;10.066;2024-01-06T01:17:40;3.08;;;1.40;;
31368;SDS011;18004;48.416;10.066;2024-01-06T01:20:06;8.45;;;1.85;;
31368;SDS011;18004;48.416;10.066;2024-01-06T01:22:32;3.70;;;1.92;;
31368;SDS011;18004;48.416;10.066;2024-01-06T01:24:58;4.85;;;2.28;;
31368;SDS011;18004;48.416;10.066;2024-01-06T01:27:25;5.13;;;1.35;;
31368;SDS011;18004;48.416;10.066;2024-01-06T01:29:51;3.03;;;1.58;;
31368;SDS011;18004;48.416;10.066;2024-01-06T01:32:18;3.58;;;1.90;;
31368;SDS011;18004;48.416;10.066;2024-01-06T01:34:44;4.70;;;1.88;;
31368;SDS011;18004;48.416;10.066;2024-01-06T01:37:09;4.05;;;1.85;;
31368;SDS011;18004;48.416;10.066;2024-01-06T01:39:35;4.93;;;2.03;;
31368;SDS011;18004;48.416;10.066;2024-01-06T01:42:01;3.00;;;1.75;;
31368;SDS011;18004;48.416;10.066;2024-01-06T01:44:27;3.50;;;2.05;;
31368;SDS011;18004;48.416;10.066;2024-01-06T01:46:53;4.30;;;1.73;;
31368;SDS011;18004;48.416;10.066;2024-01-06T01:49:19;6.72;;;1.48;;
31368;SDS011;18004;48.416;10.066;2024-01-06T01:51:45;1.85;;;1.42;;
31368;SDS011;18004;48.416;10.066;2024-01-06T01:54:11;5.22;;;1.63;;
31368;SDS011;18004;48.416;10.066;2024-01-06T01:56:37;6.47;;;1.65;;
31368;SDS011;18004;48.416;10.066;2024-01-06T01:59:07;5.82;;;1.95;;
31368;SDS011;18004;48.416;10.066;2024-01-06T02:01:35;3.15;;;1.83;;
31368;SDS011;18004;48.416;10.066;2024-01-06T02:04:01;4.85;;;2.25;;
31368;SDS011;18004;48.416;10.066;2024-01-06T02:06:27;7.13;;;1.98;;
31368;SDS011;18004;48.416;10.066;2024-01-06T02:08:53;4.07;;;1.80;;
31368;SDS011;18004;48.416;10.066;2024-01-06T02:11:19;2.45;;;2.00;;
31368;SDS011;18004;48.416;10.066;2024-01-06T02:13:45;5.00;;;2.08;;
31368;SDS011;18004;48.416;10.066;2024-01-06T02:16:11;3.75;;;1.67;;
31368;SDS011;18004;48.416;10.066;2024-01-06T02:18:37;1.70;;;1.58;;
31368;SDS011;18004;48.416;10.066;2024-01-06T02:21:03;8.30;;;2.15;;
31368;SDS011;18004;48.416;10.066;2024-01-06T02:23:29;2.85;;;1.92;;
31368;SDS011;18004;48.416;10.066;2024-01-06T02:25:55;6.40;;;1.75;;
31368;SDS011;18004;48.416;10.066;2024-01-06T02:28:21;2.53;;;1.50;;
31368;SDS011;18004;48.416;10.066;2024-01-06T02:30:47;4.07;;;1.65;;
31368;SDS011;18004;48.416;10.066;2024-01-06T02:33:14;7.43;;;1.67;;
31368;SDS011;18004;48.416;10.066;2024-01-06T02:35:40;3.53;;;1.80;;
31368;SDS011;18004;48.416;10.066;2024-01-06T02:38:06;2.45;;;1.73;;
31368;SDS011;18004;48.416;10.066;2024-01-06T02:40:32;3.08;;;1.98;;
31368;SDS011;18004;48.416;10.066;2024-01-06T02:42:58;3.05;;;2.00;;
31368;SDS011;18004;48.416;10.066;2024-01-06T02:45:24;3.28;;;1.42;;
31368;SDS011;18004;48.416;10.066;2024-01-06T02:47:50;3.55;;;1.83;;
31368;SDS011;18004;48.416;10.066;2024-01-06T02:50:16;6.53;;;1.90;;
31368;SDS011;18004;48.416;10.066;2024-01-06T02:52:42;2.05;;;1.85;;
31368;SDS011;18004;48.416;10.066;2024-01-06T02:55:08;4.63;;;1.95;;
31368;SDS011;18004;48.416;10.066;2024-01-06T02:57:34;5.57;;;1.75;;
31368;SDS011;18004;48.416;10.066;2024-01-06T03:00:01;2.13;;;1.48;;
31368;SDS011;18004;48.416;10.066;2024-01-06T03:02:27;3.17;;;1.60;;
31368;SDS011;18004;48.416;10.066;2024-01-06T03:04:52;2.60;;;1.48;;
31368;SDS011;18004;48.416;10.066;2024-01-06T03:07:18;5.00;;;1.73;;
31368;SDS011;18004;48.416;10.066;2024-01-06T03:09:44;5.15;;;2.05;;
31368;SDS011;18004;48.416;10.066;2024-01-06T03:12:10;5.13;;;1.88;;
31368;SDS011;18004;48.416;10.066;2024-01-06T03:14:35;1.90;;;1.42;;
31368;SDS011;18004;48.416;10.066;2024-01-06T03:17:01;5.18;;;1.85;;
31368;SDS011;18004;48.416;10.066;2024-01-06T03:19:28;4.43;;;1.33;;
31368;SDS011;18004;48.416;10.066;2024-01-06T03:21:54;3.28;;;1.75;;
31368;SDS011;18004;48.416;10.066;2024-01-06T03:24:23;4.50;;;1.45;;
31368;SDS011;18004;48.416;10.066;2024-01-06T03:26:50;1.38;;;1.20;;
31368;SDS011;18004;48.416;10.066;2024-01-06T03:29:15;4.30;;;1.70;;
31368;SDS011;18004;48.416;10.066;2024-01-06T03:31:42;1.83;;;1.02;;
31368;SDS011;18004;48.416;10.066;2024-01-06T03:34:08;5.40;;;1.15;;
31368;SDS011;18004;48.416;10.066;2024-01-06T03:36:36;7.55;;;1.55;;
31368;SDS011;18004;48.416;10.066;2024-01-06T03:39:05;2.65;;;1.50;;
31368;SDS011;18004;48.416;10.066;2024-01-06T03:41:31;3.55;;;1.27;;
31368;SDS011;18004;48.416;10.066;2024-01-06T03:43:57;2.33;;;1.40;;
31368;SDS011;18004;48.416;10.066;2024-01-06T03:46:23;6.63;;;1.38;;
31368;SDS011;18004;48.416;10.066;2024-01-06T03:48:49;4.90;;;1.50;;
31368;SDS011;18004;48.416;10.066;2024-01-06T03:51:14;2.72;;;1.38;;
31368;SDS011;18004;48.416;10.066;2024-01-06T03:53:40;6.30;;;1.50;;
31368;SDS011;18004;48.416;10.066;2024-01-06T03:56:06;3.47;;;1.67;;
31368;SDS011;18004;48.416;10.066;2024-01-06T03:58:32;6.47;;;1.52;;
31368;SDS011;18004;48.416;10.066;2024-01-06T04:00:58;1.40;;;1.30;;
31368;SDS011;18004;48.416;10.066;2024-01-06T04:03:24;3.20;;;1.58;;
31368;SDS011;18004;48.416;10.066;2024-01-06T04:05:50;1.33;;;1.00;;
31368;SDS011;18004;48.416;10.066;2024-01-06T04:08:15;5.65;;;1.40;;
31368;SDS011;18004;48.416;10.066;2024-01-06T04:10:42;3.78;;;1.40;;
31368;SDS011;18004;48.416;10.066;2024-01-06T04:13:08;5.47;;;1.65;;
31368;SDS011;18004;48.416;10.066;2024-01-06T04:15:35;2.38;;;1.25;;
31368;SDS011;18004;48.416;10.066;2024-01-06T04:18:01;4.70;;;1.67;;
31368;SDS011;18004;48.416;10.066;2024-01-06T04:20:29;2.92;;;1.30;;
31368;SDS011;18004;48.416;10.066;2024-01-06T04:22:55;5.13;;;1.73;;
31368;SDS011;18004;48.416;10.066;2024-01-06T04:25:20;2.08;;;1.35;;
31368;SDS011;18004;48.416;10.066;2024-01-06T04:27:46;2.30;;;1.38;;
31368;SDS011;18004;48.416;10.066;2024-01-06T04:30:14;4.32;;;1.50;;
31368;SDS011;18004;48.416;10.066;2024-01-06T04:32:40;6.40;;;1.55;;
31368;SDS011;18004;48.416;10.066;2024-01-06T04:35:06;4.15;;;1.73;;
31368;SDS011;18004;48.416;10.066;2024-01-06T04:37:32;6.75;;;1.83;;
31368;SDS011;18004;48.416;10.066;2024-01-06T04:39:58;3.85;;;1.40;;
31368;SDS011;18004;48.416;10.066;2024-01-06T04:42:24;1.65;;;1.15;;
31368;SDS011;18004;48.416;10.066;2024-01-06T04:44:50;4.50;;;1.55;;
31368;SDS011;18004;48.416;10.066;2024-01-06T04:47:16;1.70;;;1.10;;
31368;SDS011;18004;48.416;10.066;2024-01-06T04:49:43;3.25;;;1.00;;
31368;SDS011;18004;48.416;10.066;2024-01-06T04:52:09;2.60;;;1.05;;
31368;SDS011;18004;48.416;10.066;2024-01-06T04:54:35;1.95;;;1.20;;
31368;SDS011;18004;48.416;10.066;2024-01-06T04:57:01;1.65;;;0.98;;
31368;SDS011;18004;48.416;10.066;2024-01-06T04:59:27;1.83;;;1.17;;
31368;SDS011;18004;48.416;10.066;2024-01-06T05:01:53;3.42;;;1.20;;
31368;SDS011;18004;48.416;10.066;2024-01-06T05:04:19;2.55;;;1.30;;
31368;SDS011;18004;48.416;10.066;2024-01-06T05:06:45;1.58;;;1.08;;
31368;SDS011;18004;48.416;10.066;2024-01-06T05:09:10;4.40;;;1.33;;
31368;SDS011;18004;48.416;10.066;2024-01-06T05:11:36;4.75;;;1.52;;
31368;SDS011;18004;48.416;10.066;2024-01-06T05:14:02;5.20;;;1.17;;
31368;SDS011;18004;48.416;10.066;2024-01-06T05:16:28;1.27;;;0.95;;
31368;SDS011;18004;48.416;10.066;2024-01-06T05:18:54;1.58;;;1.10;;
31368;SDS011;18004;48.416;10.066;2024-01-06T05:21:19;3.53;;;1.00;;
31368;SDS011;18004;48.416;10.066;2024-01-06T05:23:45;2.15;;;0.95;;
31368;SDS011;18004;48.416;10.066;2024-01-06T05:26:11;4.35;;;1.00;;
31368;SDS011;18004;48.416;10.066;2024-01-06T05:28:39;4.38;;;1.23;;
31368;SDS011;18004;48.416;10.066;2024-01-06T05:31:05;1.35;;;1.15;;
31368;SDS011;18004;48.416;10.066;2024-01-06T05:33:31;2.67;;;1.55;;
31368;SDS011;18004;48.416;10.066;2024-01-06T05:35:57;2.50;;;1.40;;
31368;SDS011;18004;48.416;10.066;2024-01-06T05:38:22;3.47;;;1.48;;
31368;SDS011;18004;48.416;10.066;2024-01-06T05:40:48;1.50;;;1.10;;
31368;SDS011;18004;48.416;10.066;2024-01-06T05:43:14;6.53;;;1.80;;
31368;SDS011;18004;48.416;10.066;2024-01-06T05:45:40;4.25;;;1.52;;
31368;SDS011;18004;48.416;10.066;2024-01-06T05:48:09;4.00;;;1.30;;
31368;SDS011;18004;48.416;10.066;2024-01-06T05:50:35;5.43;;;1.40;;
31368;SDS011;18004;48.416;10.066;2024-01-06T05:53:02;3.55;;;1.60;;
31368;SDS011;18004;48.416;10.066;2024-01-06T05:55:28;10.60;;;1.60;;
31368;SDS011;18004;48.416;10.066;2024-01-06T05:57:54;6.00;;;1.60;;
31368;SDS011;18004;48.416;10.066;2024-01-06T06:00:20;6.15;;;1.45;;
31368;SDS011;18004;48.416;10.066;2024-01-06T06:02:46;2.58;;;1.45;;
31368;SDS011;18004;48.416;10.066;2024-01-06T06:05:11;6.13;;;1.63;;
31368;SDS011;18004;48.416;10.066;2024-01-06T06:07:38;5.43;;;1.58;;
31368;SDS011;18004;48.416;10.066;2024-01-06T06:10:05;3.20;;;1.38;;
31368;SDS011;18004;48.416;10.066;2024-01-06T06:12:32;5.18;;;1.98;;
31368;SDS011;18004;48.416;10.066;2024-01-06T06:14:58;1.95;;;1.38;;
31368;SDS011;18004;48.416;10.066;2024-01-06T06:17:24;3.83;;;1.98;;
31368;SDS011;18004;48.416;10.066;2024-01-06T06:19:50;4.25;;;2.22;;
31368;SDS011;18004;48.416;10.066;2024-01-06T06:22:16;2.15;;;1.70;;
31368;SDS011;18004;48.416;10.066;2024-01-06T06:24:42;3.10;;;1.60;;
31368;SDS011;18004;48.416;10.066;2024-01-06T06:27:08;3.92;;;1.98;;
31368;SDS011;18004;48.416;10.066;2024-01-06T06:29:33;5.68;;;2.42;;
31368;SDS011;18004;48.416;10.066;2024-01-06T06:31:59;3.40;;;2.20;;
31368;SDS011;18004;48.416;10.066;2024-01-06T06:34:25;8.88;;;2.47;;
31368;SDS011;18004;48.416;10.066;2024-01-06T06:36:51;4.70;;;2.22;;
31368;SDS011;18004;48.416;10.066;2024-01-06T06:39:17;2.58;;;1.88;;
31368;SDS011;18004;48.416;10.066;2024-01-06T06:41:43;4.72;;;2.38;;
31368;SDS011;18004;48.416;10.066;2024-01-06T06:44:09;4.55;;;2.15;;
31368;SDS011;18004;48.416;10.066;2024-01-06T06:46:36;5.20;;;2.15;;
31368;SDS011;18004;48.416;10.066;2024-01-06T06:49:01;4.72;;;2.03;;
31368;SDS011;18004;48.416;10.066;2024-01-06T06:51:27;2.85;;;1.90;;
31368;SDS011;18004;48.416;10.066;2024-01-06T06:53:55;2.38;;;1.70;;
31368;SDS011;18004;48.416;10.066;2024-01-06T06:56:21;7.13;;;2.17;;
31368;SDS011;18004;48.416;10.066;2024-01-06T06:58:48;4.25;;;2.17;;
31368;SDS011;18004;48.416;10.066;2024-01-06T07:01:14;6.55;;;2.17;;
31368;SDS011;18004;48.416;10.066;2024-01-06T07:03:40;6.40;;;1.90;;
31368;SDS011;18004;48.416;10.066;2024-01-06T07:06:06;5.40;;;2.42;;
31368;SDS011;18004;48.416;10.066;2024-01-06T07:08:32;2.10;;;1.80;;
31368;SDS011;18004;48.416;10.066;2024-01-06T07:10:58;3.13;;;2.08;;
31368;SDS011;18004;48.416;10.066;2024-01-06T07:13:23;4.63;;;2.28;;
31368;SDS011;18004;48.416;10.066;2024-01-06T07:15:49;4.47;;;1.80;;
31368;SDS011;18004;48.416;10.066;2024-01-06T07:18:15;2.92;;;1.80;;
31368;SDS011;18004;48.416;10.066;2024-01-06T07:20:41;6.57;;;2.30;;
31368;SDS011;18004;48.416;10.066;2024-01-06T07:23:06;3.75;;;2.00;;
31368;SDS011;18004;48.416;10.066;2024-01-06T07:25:32;2.88;;;2.00;;
31368;SDS011;18004;48.416;10.066;2024-01-06T07:27:58;5.70;;;2.00;;
31368;SDS011;18004;48.416;10.066;2024-01-06T07:30:24;4.70;;;2.45;;
31368;SDS011;18004;48.416;10.066;2024-01-06T07:32:49;6.18;;;2.13;;
31368;SDS011;18004;48.416;10.066;2024-01-06T07:35:17;11.00;;;2.00;;
31368;SDS011;18004;48.416;10.066;2024-01-06T07:37:43;6.40;;;2.10;;
31368;SDS011;18004;48.416;10.066;2024-01-06T07:40:08;8.00;;;1.73;;
31368;SDS011;18004;48.416;10.066;2024-01-06T07:42:35;7.22;;;2.00;;
31368;SDS011;18004;48.416;10.066;2024-01-06T07:45:00;5.18;;;1.83;;
31368;SDS011;18004;48.416;10.066;2024-01-06T07:47:27;4.97;;;1.98;;
31368;SDS011;18004;48.416;10.066;2024-01-06T07:49:53;3.85;;;2.25;;
31368;SDS011;18004;48.416;10.066;2024-01-06T07:52:19;2.47;;;1.75;;
31368;SDS011;18004;48.416;10.066;2024-01-06T07:54:45;4.00;;;2.25;;
31368;SDS011;18004;48.416;10.066;2024-01-06T07:57:11;2.70;;;1.88;;
31368;SDS011;18004;48.416;10.066;2024-01-06T07:59:38;4.28;;;1.73;;
31368;SDS011;18004;48.416;10.066;2024-01-06T08:02:03;4.95;;;2.85;;
31368;SDS011;18004;48.416;10.066;2024-01-06T08:04:29;5.43;;;2.30;;
31368;SDS011;18004;48.416;10.066;2024-01-06T08:06:55;3.28;;;2.28;;
31368;SDS011;18004;48.416;10.066;2024-01-06T08:09:21;4.57;;;2.35;;
31368;SDS011;18004;48.416;10.066;2024-01-06T08:11:49;4.35;;;2.35;;
31368;SDS011;18004;48.416;10.066;2024-01-06T08:14:14;3.67;;;2.40;;
31368;SDS011;18004;48.416;10.066;2024-01-06T08:16:42;8.27;;;3.58;;
31368;SDS011;18004;48.416;10.066;2024-01-06T08:19:09;4.22;;;2.55;;
31368;SDS011;18004;48.416;10.066;2024-01-06T08:21:35;2.90;;;1.95;;
31368;SDS011;18004;48.416;10.066;2024-01-06T08:24:01;3.65;;;2.08;;
31368;SDS011;18004;48.416;10.066;2024-01-06T08:26:27;3.47;;;2.38;;
31368;SDS011;18004;48.416;10.066;2024-01-06T08:28:53;3.60;;;2.40;;
31368;SDS011;18004;48.416;10.066;2024-01-06T08:31:19;5.68;;;2.58;;
31368;SDS011;18004;48.416;10.066;2024-01-06T08:33:44;5.45;;;2.53;;
31368;SDS011;18004;48.416;10.066;2024-01-06T08:36:10;7.47;;;2.53;;
31368;SDS011;18004;48.416;10.066;2024-01-06T08:38:37;6.88;;;3.00;;
31368;SDS011;18004;48.416;10.066;2024-01-06T08:41:02;8.65;;;3.35;;
31368;SDS011;18004;48.416;10.066;2024-01-06T08:43:28;7.95;;;3.10;;
31368;SDS011;18004;48.416;10.066;2024-01-06T08:45:54;5.47;;;3.10;;
31368;SDS011;18004;48.416;10.066;2024-01-06T08:48:20;5.65;;;2.45;;
31368;SDS011;18004;48.416;10.066;2024-01-06T08:50:46;6.25;;;2.70;;
31368;SDS011;18004;48.416;10.066;2024-01-06T08:53:12;5.30;;;2.38;;
31368;SDS011;18004;48.416;10.066;2024-01-06T08:55:38;9.95;;;2.65;;
31368;SDS011;18004;48.416;10.066;2024-01-06T08:58:04;5.72;;;3.00;;
31368;SDS011;18004;48.416;10.066;2024-01-06T09:00:30;5.38;;;2.70;;
31368;SDS011;18004;48.416;10.066;2024-01-06T09:02:56;4.07;;;2.22;;
31368;SDS011;18004;48.416;10.066;2024-01-06T09:05:22;2.55;;;2.22;;
31368;SDS011;18004;48.416;10.066;2024-01-06T09:07:48;4.47;;;1.90;;
31368;SDS011;18004;48.416;10.066;2024-01-06T09:10:18;4.15;;;2.40;;
31368;SDS011;18004;48.416;10.066;2024-01-06T09:12:44;5.38;;;2.00;;
31368;SDS011;18004;48.416;10.066;2024-01-06T09:15:10;7.82;;;2.20;;
31368;SDS011;18004;48.416;10.066;2024-01-06T09:17:35;4.78;;;1.88;;
31368;SDS011;18004;48.416;10.066;2024-01-06T09:20:01;3.08;;;2.08;;
31368;SDS011;18004;48.416;10.066;2024-01-06T09:22:28;3.08;;;2.00;;
31368;SDS011;18004;48.416;10.066;2024-01-06T09:24:53;3.10;;;2.25;;
31368;SDS011;18004;48.416;10.066;2024-01-06T09:27:19;5.13;;;2.03;;
31368;SDS011;18004;48.416;10.066;2024-01-06T09:29:45;2.72;;;2.05;;
31368;SDS011;18004;48.416;10.066;2024-01-06T09:32:11;4.10;;;2.20;;
31368;SDS011;18004;48.416;10.066;2024-01-06T09:34:38;8.40;;;2.13;;
31368;SDS011;18004;48.416;10.066;2024-01-06T09:37:04;3.03;;;1.70;;
31368;SDS011;18004;48.416;10.066;2024-01-06T09:39:30;8.73;;;1.85;;
31368;SDS011;18004;48.416;10.066;2024-01-06T09:41:58;4.60;;;1.95;;
31368;SDS011;18004;48.416;10.066;2024-01-06T09:44:24;2.67;;;1.75;;
31368;SDS011;18004;48.416;10.066;2024-01-06T09:46:50;2.38;;;1.48;;
31368;SDS011;18004;48.416;10.066;2024-01-06T09:49:17;2.47;;;1.80;;
31368;SDS011;18004;48.416;10.066;2024-01-06T09:51:49;3.10;;;1.80;;
31368;SDS011;18004;48.416;10.066;2024-01-06T09:54:21;6.18;;;1.90;;
31368;SDS011;18004;48.416;10.066;2024-01-06T09:59:15;6.97;;;2.50;;
31368;SDS011;18004;48.416;10.066;2024-01-06T10:01:41;5.88;;;2.38;;
31368;SDS011;18004;48.416;10.066;2024-01-06T10:04:07;9.23;;;1.92;;
31368;SDS011;18004;48.416;10.066;2024-01-06T10:06:33;3.30;;;1.77;;
31368;SDS011;18004;48.416;10.066;2024-01-06T10:08:59;2.95;;;1.90;;
31368;SDS011;18004;48.416;10.066;2024-01-06T10:11:25;3.20;;;1.80;;
31368;SDS011;18004;48.416;10.066;2024-01-06T10:13:51;3.15;;;2.17;;
31368;SDS011;18004;48.416;10.066;2024-01-06T10:16:19;5.10;;;1.90;;
31368;SDS011;18004;48.416;10.066;2024-01-06T10:18:45;4.85;;;2.20;;
31368;SDS011;18004;48.416;10.066;2024-01-06T10:21:11;4.90;;;2.30;;
31368;SDS011;18004;48.416;10.066;2024-01-06T10:23:38;5.43;;;2.08;;
31368;SDS011;18004;48.416;10.066;2024-01-06T10:26:04;4.65;;;2.67;;
31368;SDS011;18004;48.416;10.066;2024-01-06T10:28:30;5.35;;;2.80;;
31368;SDS011;18004;48.416;10.066;2024-01-06T10:30:56;7.95;;;2.67;;
31368;SDS011;18004;48.416;10.066;2024-01-06T10:33:23;4.95;;;2.35;;
31368;SDS011;18004;48.416;10.066;2024-01-06T10:35:50;4.32;;;2.38;;
31368;SDS011;18004;48.416;10.066;2024-01-06T10:38:17;6.35;;;2.50;;
31368;SDS011;18004;48.416;10.066;2024-01-06T10:40:56;6.90;;;3.15;;
31368;SDS011;18004;48.416;10.066;2024-01-06T10:43:28;9.77;;;5.20;;
31368;SDS011;18004;48.416;10.066;2024-01-06T10:45:55;10.88;;;3.17;;
31368;SDS011;18004;48.416;10.066;2024-01-06T10:48:24;3.13;;;2.50;;
31368;SDS011;18004;48.416;10.066;2024-01-06T10:50:51;3.78;;;3.05;;
31368;SDS011;18004;48.416;10.066;2024-01-06T10:53:18;4.38;;;3.00;;
31368;SDS011;18004;48.416;10.066;2024-01-06T10:55:45;5.05;;;2.90;;
31368;SDS011;18004;48.416;10.066;2024-01-06T10:58:13;3.78;;;2.63;;
31368;SDS011;18004;48.416;10.066;2024-01-06T11:00:42;6.93;;;3.10;;
31368;SDS011;18004;48.416;10.066;2024-01-06T11:03:07;3.88;;;2.22;;
31368;SDS011;18004;48.416;10.066;2024-01-06T11:05:36;4.40;;;2.78;;
31368;SDS011;18004;48.416;10.066;2024-01-06T11:08:03;6.40;;;3.00;;
31368;SDS011;18004;48.416;10.066;2024-01-06T11:10:30;7.95;;;2.85;;
31368;SDS011;18004;48.416;10.066;2024-01-06T11:13:10;7.93;;;3.50;;
31368;SDS011;18004;48.416;10.066;2024-01-06T11:15:48;11.02;;;3.08;;
31368;SDS011;18004;48.416;10.066;2024-01-06T11:18:35;8.32;;;2.55;;
31368;SDS011;18004;48.416;10.066;2024-01-06T11:21:19;7.70;;;3.15;;
31368;SDS011;18004;48.416;10.066;2024-01-06T11:26:52;11.00;;;3.25;;
31368;SDS011;18004;48.416;10.066;2024-01-06T11:29:22;8.05;;;3.15;;
31368;SDS011;18004;48.416;10.066;2024-01-06T11:34:51;4.32;;;2.47;;
31368;SDS011;18004;48.416;10.066;2024-01-06T11:37:19;7.72;;;3.15;;
31368;SDS011;18004;48.416;10.066;2024-01-06T11:39:49;7.13;;;3.00;;
31368;SDS011;18004;48.416;10.066;2024-01-06T11:42:15;4.82;;;3.35;;
31368;SDS011;18004;48.416;10.066;2024-01-06T11:44:45;6.43;;;3.47;;
31368;SDS011;18004;48.416;10.066;2024-01-06T11:47:15;4.97;;;2.90;;
31368;SDS011;18004;48.416;10.066;2024-01-06T11:49:46;7.90;;;2.67;;
31368;SDS011;18004;48.416;10.066;2024-01-06T11:52:13;4.30;;;2.80;;
31368;SDS011;18004;48.416;10.066;2024-01-06T11:54:39;3.65;;;2.92;;
31368;SDS011;18004;48.416;10.066;2024-01-06T11:57:06;6.32;;;3.47;;
31368;SDS011;18004;48.416;10.066;2024-01-06T11:59:32;4.30;;;3.03;;
31368;SDS011;18004;48.416;10.066;2024-01-06T12:01:58;7.82;;;3.58;;
31368;SDS011;18004;48.416;10.066;2024-01-06T12:04:24;4.55;;;2.35;;
31368;SDS011;18004;48.416;10.066;2024-01-06T12:06:52;5.25;;;3.30;;
31368;SDS011;18004;48.416;10.066;2024-01-06T12:09:19;5.00;;;3.05;;
31368;SDS011;18004;48.416;10.066;2024-01-06T12:11:45;5.55;;;2.85;;
31368;SDS011;18004;48.416;10.066;2024-01-06T12:14:12;4.35;;;3.22;;
31368;SDS011;18004;48.416;10.066;2024-01-06T12:16:38;7.10;;;4.65;;
31368;SDS011;18004;48.416;10.066;2024-01-06T12:19:04;7.68;;;3.50;;
31368;SDS011;18004;48.416;10.066;2024-01-06T12:21:29;8.27;;;4.75;;
31368;SDS011;18004;48.416;10.066;2024-01-06T12:24:18;5.88;;;3.95;;
31368;SDS011;18004;48.416;10.066;2024-01-06T12:26:46;7.82;;;4.88;;
31368;SDS011;18004;48.416;10.066;2024-01-06T12:29:12;5.88;;;3.80;;
31368;SDS011;18004;48.416;10.066;2024-01-06T12:31:41;5.53;;;3.60;;
31368;SDS011;18004;48.416;10.066;2024-01-06T12:34:09;6.75;;;3.90;;
31368;SDS011;18004;48.416;10.066;2024-01-06T12:36:36;6.85;;;3.38;;
31368;SDS011;18004;48.416;10.066;2024-01-06T12:39:03;4.05;;;2.85;;
31368;SDS011;18004;48.416;10.066;2024-01-06T12:41:29;5.68;;;3.08;;
31368;SDS011;18004;48.416;10.066;2024-01-06T12:43:58;7.40;;;3.55;;
31368;SDS011;18004;48.416;10.066;2024-01-06T12:46:26;5.53;;;3.10;;
31368;SDS011;18004;48.416;10.066;2024-01-06T12:48:52;4.95;;;2.85;;
31368;SDS011;18004;48.416;10.066;2024-01-06T12:51:18;3.85;;;2.75;;
31368;SDS011;18004;48.416;10.066;2024-01-06T12:53:43;5.63;;;3.03;;
31368;SDS011;18004;48.416;10.066;2024-01-06T12:56:09;6.85;;;3.30;;
31368;SDS011;18004;48.416;10.066;2024-01-06T12:58:35;4.28;;;2.88;;
31368;SDS011;18004;48.416;10.066;2024-01-06T13:01:01;9.27;;;3.40;;
31368;SDS011;18004;48.416;10.066;2024-01-06T13:03:27;5.38;;;3.33;;
31368;SDS011;18004;48.416;10.066;2024-01-06T13:05:54;11.70;;;4.15;;
31368;SDS011;18004;48.416;10.066;2024-01-06T13:08:20;6.93;;;3.45;;
31368;SDS011;18004;48.416;10.066;2024-01-06T13:10:46;3.50;;;2.25;;
31368;SDS011;18004;48.416;10.066;2024-01-06T13:13:12;4.72;;;2.08;;
31368;SDS011;18004;48.416;10.066;2024-01-06T13:15:37;6.50;;;2.67;;
31368;SDS011;18004;48.416;10.066;2024-01-06T13:18:04;4.25;;;3.13;;
31368;SDS011;18004;48.416;10.066;2024-01-06T13:20:30;5.40;;;3.22;;
31368;SDS011;18004;48.416;10.066;2024-01-06T13:22:55;4.68;;;3.35;;
31368;SDS011;18004;48.416;10.066;2024-01-06T13:25:21;6.07;;;4.85;;
31368;SDS011;18004;48.416;10.066;2024-01-06T13:27:47;5.25;;;3.55;;
31368;SDS011;18004;48.416;10.066;2024-01-06T13:30:13;8.63;;;3.05;;
31368;SDS011;18004;48.416;10.066;2024-01-06T13:32:40;4.65;;;3.00;;
31368;SDS011;18004;48.416;10.066;2024-01-06T13:35:06;8.63;;;3.50;;
31368;SDS011;18004;48.416;10.066;2024-01-06T13:37:32;6.32;;;3.53;;
31368;SDS011;18004;48.416;10.066;2024-01-06T13:39:58;7.57;;;3.72;;
31368;SDS011;18004;48.416;10.066;2024-01-06T13:42:24;6.50;;;2.83;;
31368;SDS011;18004;48.416;10.066;2024-01-06T13:44:50;11.63;;;4.13;;
31368;SDS011;18004;48.416;10.066;2024-01-06T13:47:16;6.47;;;3.80;;
31368;SDS011;18004;48.416;10.066;2024-01-06T13:49:41;5.28;;;3.47;;
31368;SDS011;18004;48.416;10.066;2024-01-06T13:52:07;5.45;;;3.78;;
31368;SDS011;18004;48.416;10.066;2024-01-06T13:54:34;5.22;;;3.83;;
31368;SDS011;18004;48.416;10.066;2024-01-06T13:57:00;6.35;;;4.03;;
31368;SDS011;18004;48.416;10.066;2024-01-06T13:59:26;4.38;;;2.80;;
31368;SDS011;18004;48.416;10.066;2024-01-06T14:01:52;5.40;;;2.60;;
31368;SDS011;18004;48.416;10.066;2024-01-06T14:04:19;4.57;;;2.88;;
31368;SDS011;18004;48.416;10.066;2024-01-06T14:06:45;3.30;;;2.22;;
31368;SDS011;18004;48.416;10.066;2024-01-06T14:09:13;4.43;;;1.90;;
31368;SDS011;18004;48.416;10.066;2024-01-06T14:11:39;1.77;;;1.63;;
31368;SDS011;18004;48.416;10.066;2024-01-06T14:14:04;1.65;;;1.50;;
31368;SDS011;18004;48.416;10.066;2024-01-06T14:16:30;5.55;;;2.15;;
31368;SDS011;18004;48.416;10.066;2024-01-06T14:18:56;3.90;;;2.75;;
31368;SDS011;18004;48.416;10.066;2024-01-06T14:21:22;4.57;;;2.45;;
31368;SDS011;18004;48.416;10.066;2024-01-06T14:23:48;3.85;;;2.38;;
31368;SDS011;18004;48.416;10.066;2024-01-06T14:26:15;7.53;;;2.35;;
31368;SDS011;18004;48.416;10.066;2024-01-06T14:28:42;3.50;;;2.67;;
31368;SDS011;18004;48.416;10.066;2024-01-06T14:31:08;3.60;;;2.45;;
31368;SDS011;18004;48.416;10.066;2024-01-06T14:33:35;3.45;;;2.15;;
31368;SDS011;18004;48.416;10.066;2024-01-06T14:36:01;6.88;;;2.22;;
31368;SDS011;18004;48.416;10.066;2024-01-06T14:38:28;14.10;;;6.50;;